createdAt,value
2023-02-22T00:03:32.347Z,100437.00
2023-02-22T00:08:34.154Z,100428.31
2023-02-22T00:13:30.983Z,100423.66
2023-02-22T00:18:28.816Z,100426.22
2023-02-22T00:23:28.412Z,100424.47
2023-02-22T00:28:25.354Z,100427.47
2023-02-22T00:33:21.748Z,100419.31
2023-02-22T00:38:19.493Z,100407.84
2023-02-22T00:43:15.895Z,100403.91
2023-02-22T00:48:12.321Z,100395.34
2023-02-22T00:53:10.241Z,100405.28
2023-02-22T00:58:07.566Z,100400.59
2023-02-22T01:03:06.086Z,100393.25
2023-02-22T01:08:03.058Z,100392.56
2023-02-22T01:13:00.855Z,100379.97
2023-02-22T01:17:59.487Z,100381.09
2023-02-22T01:22:56.911Z,100369.34
2023-02-22T01:27:54.093Z,100359.72
2023-02-22T01:32:53.636Z,100354.50
2023-02-22T01:37:50.248Z,100335.91
2023-02-22T01:42:55.149Z,100331.66
2023-02-22T01:47:51.521Z,100328.53
2023-02-22T01:52:48.685Z,100328.03
2023-02-22T01:57:47.769Z,100320.28
2023-02-22T02:02:47.243Z,100313.16
2023-02-22T02:07:46.522Z,100322.53
2023-02-22T02:12:46.324Z,100325.34
2023-02-22T02:17:43.582Z,100324.38
2023-02-22T02:22:54.873Z,100318.28
2023-02-22T02:28:13.093Z,100309.31
2023-02-22T02:33:29.297Z,100301.91
2023-02-22T02:38:34.237Z,100297.72
2023-02-22T02:43:43.807Z,100301.97
2023-02-22T02:48:46.871Z,100297.22
2023-02-22T02:53:47.352Z,100302.38
2023-02-22T02:58:49.272Z,100305.41
2023-02-22T03:04:04.143Z,100305.16
2023-02-22T03:09:13.895Z,100297.63
2023-02-22T03:14:20.609Z,100297.31
2023-02-22T03:19:21.842Z,100297.41
2023-02-22T03:24:25.478Z,100299.97
2023-02-22T03:29:24.652Z,100298.03
2023-02-22T03:34:26.035Z,100293.78
2023-02-22T03:39:30.897Z,100287.84
2023-02-22T03:44:30.930Z,100294.38
2023-02-22T03:49:36.040Z,100293.63
2023-02-22T03:54:32.950Z,100293.88
2023-02-22T03:59:30.048Z,100295.91
2023-02-22T04:04:26.768Z,100299.66
2023-02-22T04:09:23.303Z,100297.88
2023-02-22T04:14:19.665Z,100308.22
2023-02-22T04:19:16.004Z,100305.28
2023-02-22T04:24:12.460Z,100302.41
2023-02-22T04:29:08.934Z,100306.81
2023-02-22T04:34:06.055Z,100308.66
2023-02-22T04:39:02.614Z,100303.25
2023-02-22T04:43:59.113Z,100303.75
2023-02-22T04:48:55.557Z,100297.81
2023-02-22T04:53:51.901Z,100302.41
2023-02-22T04:58:48.284Z,100283.28
2023-02-22T05:03:44.643Z,100282.59
2023-02-22T05:08:41.016Z,100269.91
2023-02-22T05:13:37.359Z,100275.00
2023-02-22T05:18:33.732Z,100266.59
2023-02-22T05:23:30.129Z,100271.25
2023-02-22T05:28:26.956Z,100268.00
2023-02-22T05:33:23.444Z,100267.53
2023-02-22T05:38:19.785Z,100271.28
2023-02-22T05:43:16.563Z,100280.47
2023-02-22T05:48:12.961Z,100276.72
2023-02-22T05:53:09.624Z,100272.19
2023-02-22T05:58:06.155Z,100274.50
2023-02-22T06:03:09.764Z,100270.94
2023-02-22T06:08:07.205Z,100282.66
2023-02-22T06:13:04.946Z,100279.09
2023-02-22T06:18:02.300Z,100272.81
2023-02-22T06:22:59.206Z,100286.22
2023-02-22T06:27:55.542Z,100289.47
2023-02-22T06:32:52.551Z,100292.34
2023-02-22T06:37:48.965Z,100290.19
2023-02-22T06:42:48.011Z,100300.47
2023-02-22T06:47:44.381Z,100312.03
2023-02-22T06:52:44.022Z,100309.63
2023-02-22T06:57:40.450Z,100317.09
2023-02-22T07:02:37.202Z,100326.84
2023-02-22T07:07:33.639Z,100333.69
2023-02-22T07:12:30.016Z,100339.16
2023-02-22T07:17:26.468Z,100339.38
2023-02-22T07:22:23.190Z,100345.94
2023-02-22T07:27:19.572Z,100356.28
2023-02-22T07:32:15.962Z,100361.81
2023-02-22T07:37:12.848Z,100363.19
2023-02-22T07:42:09.952Z,100369.06
2023-02-22T07:47:06.390Z,100370.38
2023-02-22T07:52:02.765Z,100367.25
2023-02-22T07:56:59.141Z,100366.56
2023-02-22T08:01:55.494Z,100364.75
2023-02-22T08:06:51.986Z,100363.84
2023-02-22T08:11:48.736Z,100365.28
2023-02-22T08:16:45.195Z,100349.25
2023-02-22T08:21:41.568Z,100341.03
2023-02-22T08:26:43.960Z,100330.25
2023-02-22T08:31:40.843Z,100303.06
2023-02-22T08:36:42.062Z,100279.72
2023-02-22T08:41:38.396Z,100254.97
2023-02-22T08:46:34.998Z,100215.97
2023-02-22T08:51:35.434Z,100179.16
2023-02-22T08:56:33.238Z,100138.06
2023-02-22T09:01:33.400Z,100112.66
2023-02-22T09:06:30.159Z,100089.38
2023-02-22T09:11:26.592Z,100074.38
2023-02-22T09:16:23.101Z,100049.16
2023-02-22T09:21:19.631Z,100039.19
2023-02-22T09:26:16.130Z,100019.69
2023-02-22T09:31:12.746Z,100020.47
2023-02-22T09:36:09.225Z,100009.59
2023-02-22T09:41:05.707Z,100008.69
2023-02-22T09:46:19.113Z,100004.25
2023-02-22T09:51:19.309Z,99999.47
2023-02-22T09:56:20.454Z,99995.00
2023-02-22T10:01:39.509Z,99993.94
2023-02-22T10:06:38.323Z,99980.34
2023-02-22T10:11:49.033Z,99974.50
2023-02-22T10:16:59.445Z,99978.63
2023-02-22T10:22:15.203Z,99978.50
2023-02-22T10:27:31.818Z,99970.94
2023-02-22T10:32:35.586Z,99970.53
2023-02-22T10:37:34.451Z,99973.34
2023-02-22T10:42:31.052Z,99965.47
2023-02-22T10:47:27.979Z,99959.25
2023-02-22T10:52:27.926Z,99960.88
2023-02-22T10:57:33.791Z,99958.44
2023-02-22T11:02:36.164Z,99954.94
2023-02-22T11:07:35.211Z,99955.56
2023-02-22T11:12:37.669Z,99960.00
2023-02-22T11:17:34.949Z,99954.22
2023-02-22T11:22:41.113Z,99937.91
2023-02-22T11:27:40.933Z,99948.91
2023-02-22T11:32:44.596Z,99940.34
2023-02-22T11:37:41.036Z,99930.94
2023-02-22T11:42:37.931Z,99922.91
2023-02-22T11:47:35.541Z,99923.59
2023-02-22T11:52:40.912Z,99920.28
2023-02-22T11:57:53.415Z,99913.53
2023-02-22T12:03:28.804Z,99904.91
2023-02-22T12:08:47.128Z,99895.88
2023-02-22T12:13:53.300Z,99892.13
2023-02-22T12:19:16.823Z,99883.53
2023-02-22T12:24:23.859Z,99882.97
2023-02-22T12:29:30.981Z,99874.97
2023-02-22T12:34:57.814Z,99870.75
2023-02-22T12:40:13.442Z,99872.59
2023-02-22T12:45:21.375Z,99867.28
2023-02-22T12:50:23.329Z,99863.06
2023-02-22T12:55:38.834Z,99866.75
2023-02-22T13:00:46.344Z,99862.38
2023-02-22T13:05:49.393Z,99856.03
2023-02-22T13:10:57.775Z,99851.53
2023-02-22T13:16:16.567Z,99846.88
2023-02-22T13:21:29.394Z,99844.41
2023-02-22T13:26:34.816Z,99846.41
2023-02-22T13:31:57.305Z,99831.16
2023-02-22T13:37:31.876Z,99832.97
2023-02-22T13:42:44.061Z,99836.97
2023-02-22T13:48:17.441Z,99835.81
2023-02-22T13:53:26.482Z,99830.31
2023-02-22T13:58:23.569Z,99831.47
2023-02-22T14:03:24.010Z,99822.94
2023-02-22T14:08:21.686Z,99826.00
2023-02-22T14:13:22.734Z,99823.19
2023-02-22T14:18:19.087Z,99819.91
2023-02-22T14:23:35.627Z,99824.25
2023-02-22T14:28:37.773Z,99811.63
2023-02-22T14:33:57.449Z,99816.97
2023-02-22T14:38:58.000Z,99806.53
2023-02-22T14:43:56.421Z,99802.31
2023-02-22T14:49:00.760Z,99798.78
2023-02-22T14:54:25.503Z,99802.31
2023-02-22T14:59:25.991Z,99802.03
2023-02-22T15:04:25.524Z,99803.41
2023-02-22T15:09:28.437Z,99801.66
2023-02-22T15:14:26.814Z,99797.75
2023-02-22T15:19:29.201Z,99796.28
2023-02-22T15:24:33.072Z,99794.53
2023-02-22T15:29:38.340Z,99789.81
2023-02-22T15:34:34.696Z,99787.75
2023-02-22T15:39:34.347Z,99785.66
2023-02-22T15:44:36.176Z,99785.97
2023-02-22T15:49:37.726Z,99797.22
2023-02-22T15:54:42.930Z,99785.31
2023-02-22T15:59:48.555Z,99792.03
2023-02-22T16:04:54.566Z,99784.31
2023-02-22T16:09:54.590Z,99778.06
2023-02-22T16:14:54.360Z,99788.81
2023-02-22T16:19:52.646Z,99795.22
2023-02-22T16:24:52.497Z,99791.03
2023-02-22T16:30:24.532Z,99790.41
2023-02-22T16:35:28.281Z,99806.47
2023-02-22T16:40:38.373Z,99810.72
2023-02-22T16:45:36.594Z,99806.38
2023-02-22T16:50:32.981Z,99807.75
2023-02-22T16:55:29.706Z,99812.09
2023-02-22T17:00:32.355Z,99815.56
2023-02-22T17:05:28.682Z,99811.94
2023-02-22T17:10:26.142Z,99820.25
2023-02-22T17:15:27.063Z,99826.56
2023-02-22T17:20:30.077Z,99827.34
2023-02-22T17:25:36.851Z,99817.63
2023-02-22T17:30:35.722Z,99822.38
2023-02-22T17:35:36.862Z,99825.16
2023-02-22T17:40:39.087Z,99833.28
2023-02-22T17:45:39.521Z,99827.06
2023-02-22T17:50:40.818Z,99828.78
2023-02-22T17:55:39.252Z,99838.22
2023-02-22T18:00:36.419Z,99832.19
2023-02-22T18:05:34.174Z,99832.34
2023-02-22T18:10:31.111Z,99839.22
2023-02-22T18:15:30.122Z,99839.28
2023-02-22T18:20:38.717Z,99836.75
2023-02-22T18:25:37.252Z,99841.47
2023-02-22T18:30:36.834Z,99851.34
2023-02-22T18:35:34.744Z,99853.78
2023-02-22T18:40:32.364Z,99849.44
2023-02-22T18:45:30.059Z,99854.13
2023-02-22T18:50:29.842Z,99846.03
2023-02-22T18:55:27.141Z,99837.25
2023-02-22T19:00:29.354Z,99845.34
2023-02-22T19:05:26.992Z,99850.53
2023-02-22T19:10:24.391Z,99842.16
2023-02-22T19:15:23.644Z,99840.88
2023-02-22T19:20:21.869Z,99848.94
2023-02-22T19:25:29.819Z,99850.47
2023-02-22T19:30:28.118Z,99843.38
2023-02-22T19:35:31.493Z,99840.25
2023-02-22T19:40:29.202Z,99847.84
2023-02-22T19:45:25.622Z,99849.81
2023-02-22T19:50:22.513Z,99857.00
2023-02-22T19:55:18.816Z,99860.00
2023-02-22T20:00:24.122Z,99856.16
2023-02-22T20:05:20.431Z,99857.34
2023-02-22T20:10:16.830Z,99855.44
2023-02-22T20:15:13.728Z,99857.59
2023-02-22T20:20:10.441Z,99865.53
2023-02-22T20:25:06.991Z,99861.53
2023-02-22T20:30:04.420Z,99866.81
2023-02-22T20:35:01.021Z,99872.47
2023-02-22T20:39:59.749Z,99865.16
2023-02-22T20:45:01.672Z,99873.94
2023-02-22T20:49:58.172Z,99866.72
2023-02-22T20:54:56.292Z,99876.00
2023-02-22T20:59:52.606Z,99880.13
2023-02-22T21:04:48.980Z,99882.78
2023-02-22T21:09:45.329Z,99880.34
2023-02-22T21:14:44.197Z,99893.56
2023-02-22T21:19:40.709Z,99900.56
2023-02-22T21:24:37.186Z,99906.22
2023-02-22T21:29:35.431Z,99891.84
2023-02-22T21:34:31.791Z,99900.25
2023-02-22T21:39:28.934Z,99896.44
2023-02-22T21:44:26.320Z,99898.91
2023-02-22T21:49:23.231Z,99907.16
2023-02-22T21:54:20.346Z,99905.09
2023-02-22T21:59:20.034Z,99906.78
2023-02-22T22:04:23.439Z,99905.50
2023-02-22T22:09:23.336Z,99905.81
2023-02-22T22:14:24.370Z,99902.34
2023-02-22T22:19:20.857Z,99909.66
2023-02-22T22:24:19.842Z,99913.72
2023-02-22T22:29:18.566Z,99920.66
2023-02-22T22:34:14.939Z,99920.47
2023-02-22T22:39:14.187Z,99922.91
2023-02-22T22:44:12.303Z,99932.34
2023-02-22T22:49:10.758Z,99939.56
2023-02-22T22:54:09.360Z,99939.66
2023-02-22T22:59:08.017Z,99947.88
2023-02-22T23:04:06.428Z,99945.53
2023-02-22T23:09:14.944Z,99938.88
2023-02-22T23:14:19.689Z,99944.75
2023-02-22T23:19:16.275Z,99946.63
2023-02-22T23:24:17.222Z,99952.56
2023-02-22T23:29:13.712Z,99954.00
2023-02-22T23:34:12.729Z,99949.66
2023-02-22T23:39:09.134Z,99954.72
2023-02-22T23:44:08.350Z,99963.84
2023-02-22T23:49:05.498Z,99975.66
2023-02-22T23:54:02.206Z,99977.16
2023-02-22T23:58:58.602Z,99975.75
